Lost Hills, California
Current Conditions -  °F | °C
As of 1:54 AM on Tuesday 21 Oct 2014 (Local Time) from KBFL Reporting Station
Clear Clear  
Wind Chill: 62°   Ceiling: Unl
Heat Index: 62°   Visibility: 10mi
Dew Point: 50°   Wind: 10mph
Humidity: 65%   Direction: 280°W
Pressure: 30.04"   Gusts: NA
Location:  35.62°N, 119.7°W
Report Text: KBFL 210854Z AUTO 28009KT 10SM CLR 17/10 A3004 RMK AO2 SLP167 T01670100 53016
Loading
Personal Weather Stations






























Interactive Weather Map New forecast layout! Learn more

10-Day Weather Forecast

Advertisements
Track Severe Weather on mobile